Aguada, Puerto Rico
Current Conditions -  °F | °C
As of 12:50 PM on Friday 21 Nov 2014 (Local Time) from TJBQ Reporting Station
Scattered Clouds Scattered Clouds  
Wind Chill: 84°   Ceiling: Unl
Heat Index: 91°   Visibility: 10mi
Dew Point: 73°   Wind: 18mph
Humidity: 70%   Direction: 60°ENE
Pressure: 30.01"   Gusts: 25mph
Location:  18.38°N, 67.19°W
Report Text: TJBQ 211650Z 06016G22KT 10SM SCT023 SCT028 SCT035 29/23 A3001 RMK RWY08 ATIS V
Loading
Personal Weather Stations






























Interactive Weather Map New forecast layout! Learn more

10-Day Weather Forecast

Advertisements
Track Severe Weather on mobile